This is the latest recevied weather packets stored in our database for station/object G6LTT. If no packets are shown the sender has not sent any weather packets the latest 10 day(s).
| Time | Temp. | Humidity | Pressure | Rain* | Wind** | Luminosity | Snow |
|---|---|---|---|---|---|---|---|
| 1777590003 | 11.67° C | 58% | 1049.5 hPa | 0 mm | - | - | - |
| 1777586403 | 12.22° C | 53% | 1049.9 hPa | 0 mm | - | - | - |
| 1777580823 | 13.89° C | 44% | 1049.7 hPa | 0 mm | - | - | - |
| 1777580283 | 13.89° C | 44% | 1049.7 hPa | 0 mm | - | - | - |
| 1777579203 | 14.44° C | 43% | 1049.6 hPa | 0 mm | - | - | - |
| 1777577763 | 15.56° C | 39% | 1049.5 hPa | 0 mm | - | - | - |
| 1777577223 | 15.56° C | 38% | 1049.4 hPa | 0 mm | - | - | - |
| 1777574703 | 16.67° C | 35% | 1049.4 hPa | 0 mm | - | - | - |
| 1777570563 | 18.33° C | 31% | 1049.4 hPa | 0 mm | - | - | - |
| 1777566963 | 18.89° C | 33% | 1049.1 hPa | 0 mm | - | - | - |
| 1777566428 | 18.89° C | 31% | 1049.3 hPa | 0 mm | - | - | - |
| 1777560843 | 20° C | 30% | 1049.4 hPa | 0 mm | - | - | - |
| 1777560308 | 20.56° C | 29% | 1049.5 hPa | 0 mm | - | - | - |
| 1777558143 | 20.56° C | 29% | 1050 hPa | 0 mm | - | - | - |
| 1777551488 | 19.44° C | 33% | 1050.7 hPa | 0 mm | - | - | - |
| 1777550948 | 19.44° C | 31% | 1050.8 hPa | 0 mm | - | - | - |
| 1777550043 | 19.44° C | 32% | 1050.8 hPa | 0 mm | - | - | - |
| 1777541763 | 16.67° C | 42% | 1051.4 hPa | 0 mm | - | - | - |
| 1777538163 | 15.56° C | 47% | 1051.8 hPa | 0 mm | - | - | - |
| 1777535236 | 14.44° C | 50% | 1051.9 hPa | 0 mm | - | - | - |
| 1777532943 | 12.22° C | 59% | 1052.2 hPa | 0 mm | - | - | - |
| 1777531099 | 11.11° C | 67% | 1051.9 hPa | 0 mm | - | - | - |
| 1777527903 | 9.44° C | 70% | 1051.8 hPa | 0 mm | - | - | - |
| 1777527363 | 9.44° C | 70% | 1051.8 hPa | 0 mm | - | - | - |
| 1777526283 | 8.89° C | 70% | 1051.9 hPa | 0 mm | - | - | - |
* Rain latest hour (hover to see other rain measurements)
** Current wind speed in m/s (hover to see current wind gust speed)